Time;durP1;ratioP1;P1;durP2;ratioP2;P2;SDS_P1;SDS_P2;PMS_P1;PMS_P2;Temp;Humidity;BMP_temperature;BMP_pressure;BME280_temperature;BME280_humidity;BME280_pressure;Samples;Min_cycle;Max_cycle;Signal;HPM_P1;HPM_P2
2023/06/23 00:01:13;;;;;;;;;;;17.40;99.90;;;;;;5016379;28;20398;-84
2023/06/23 00:03:40;;;;;;;;;;;17.40;99.90;;;;;;5015598;28;19964;-84
2023/06/23 00:06:06;;;;;;;;;;;17.40;99.90;;;;;;5032651;28;20039;-83
2023/06/23 00:08:31;;;;;;;;;;;17.40;99.90;;;;;;5033264;28;19952;-85
2023/06/23 00:10:57;;;;;;;;;;;17.40;99.90;;;;;;5016565;28;19932;-84
2023/06/23 00:13:26;;;;;;;;;;;17.40;99.90;;;;;;5017001;28;20266;-84
2023/06/23 00:15:53;;;;;;;;;;;17.40;99.90;;;;;;5032904;28;20352;-84
2023/06/23 00:18:20;;;;;;;;;;;17.40;99.90;;;;;;5032262;28;19925;-84
2023/06/23 00:20:46;;;;;;;;;;;17.40;99.90;;;;;;5016616;28;19965;-84
2023/06/23 00:23:12;;;;;;;;;;;17.40;99.90;;;;;;5013372;28;20040;-84
2023/06/23 00:25:37;;;;;;;;;;;17.30;99.90;;;;;;5012337;28;19933;-84
2023/06/23 00:28:03;;;;;;;;;;;17.30;99.90;;;;;;5032749;28;19983;-84
2023/06/23 00:30:29;;;;;;;;;;;17.30;99.90;;;;;;5012900;28;20262;-84
2023/06/23 00:32:54;;;;;;;;;;;17.30;99.90;;;;;;5011423;28;19933;-85
2023/06/23 00:35:20;;;;;;;;;;;17.30;99.90;;;;;;5028708;28;19933;-85
2023/06/23 00:37:45;;;;;;;;;;;17.20;99.90;;;;;;5013092;28;20373;-84
2023/06/23 00:40:11;;;;;;;;;;;17.20;99.90;;;;;;5031423;28;19972;-84
2023/06/23 00:42:47;;;;;;;;;;;17.20;99.90;;;;;;5012599;28;20038;-84
2023/06/23 00:45:13;;;;;;;;;;;17.20;99.90;;;;;;5044789;28;19979;-84
2023/06/23 00:47:39;;;;;;;;;;;17.20;99.90;;;;;;5046896;28;19933;-84
2023/06/23 00:50:05;;;;;;;;;;;17.10;99.90;;;;;;5030131;28;19926;-84
2023/06/23 00:52:31;;;;;;;;;;;17.20;99.90;;;;;;5032035;28;20285;-84
2023/06/23 00:54:58;;;;;;;;;;;17.20;99.90;;;;;;5032560;28;19963;-84
2023/06/23 00:57:23;;;;;;;;;;;17.20;99.90;;;;;;5032540;28;20334;-85
2023/06/23 00:59:49;;;;;;;;;;;17.20;99.90;;;;;;5032577;28;20008;-85
2023/06/23 01:02:15;;;;;;;;;;;17.10;99.90;;;;;;5031466;28;19941;-84
2023/06/23 01:04:40;;;;;;;;;;;17.10;99.90;;;;;;5030930;28;20400;-84
2023/06/23 01:07:16;;;;;;;;;;;17.10;99.90;;;;;;5014920;28;19925;-85
2023/06/23 01:09:51;;;;;;;;;;;17.10;99.90;;;;;;5015683;28;20021;-84
2023/06/23 01:12:28;;;;;;;;;;;17.00;99.90;;;;;;5031649;28;19925;-84
2023/06/23 01:15:04;;;;;;;;;;;17.00;99.90;;;;;;5023598;28;19925;-85
2023/06/23 01:17:33;;;;;;;;;;;17.10;99.90;;;;;;5031628;28;19925;-84
2023/06/23 01:20:24;;;;;;;;;;;17.00;99.90;;;;;;5030539;28;20391;-84
2023/06/23 01:22:53;;;;;;;;;;;17.00;99.90;;;;;;5032115;28;20431;-85
2023/06/23 01:25:45;;;;;;;;;;;17.00;99.90;;;;;;5031921;28;20017;-84
2023/06/23 01:28:30;;;;;;;;;;;17.00;99.90;;;;;;5023799;28;19930;-85
2023/06/23 01:30:57;;;;;;;;;;;17.00;99.90;;;;;;5014852;28;20027;-84
2023/06/23 01:33:37;;;;;;;;;;;17.00;99.90;;;;;;5030573;28;20237;-84
2023/06/23 01:36:05;;;;;;;;;;;16.90;99.90;;;;;;5023817;28;19925;-84
2023/06/23 01:38:36;;;;;;;;;;;16.90;99.90;;;;;;5031851;28;20011;-84
2023/06/23 01:41:04;;;;;;;;;;;16.90;99.90;;;;;;5031824;28;19925;-84
2023/06/23 01:43:29;;;;;;;;;;;16.80;99.90;;;;;;5011773;28;19956;-84
2023/06/23 01:46:06;;;;;;;;;;;16.80;99.90;;;;;;5011095;28;19929;-84
2023/06/23 01:48:36;;;;;;;;;;;16.80;99.90;;;;;;5046809;28;20008;-85
2023/06/23 01:51:03;;;;;;;;;;;16.80;99.90;;;;;;5029326;28;20028;-85
2023/06/23 01:53:30;;;;;;;;;;;16.80;99.90;;;;;;5015040;28;20293;-85
2023/06/23 01:55:56;;;;;;;;;;;16.80;99.90;;;;;;5031913;28;20342;-85
2023/06/23 01:58:23;;;;;;;;;;;16.70;99.90;;;;;;5031256;28;19925;-85
2023/06/23 02:00:49;;;;;;;;;;;16.60;99.90;;;;;;5009666;28;20016;-85
2023/06/23 02:03:16;;;;;;;;;;;16.60;99.90;;;;;;5025590;28;19932;-85
2023/06/23 02:05:45;;;;;;;;;;;16.50;99.90;;;;;;5031598;28;19926;-85
2023/06/23 02:08:12;;;;;;;;;;;16.40;99.90;;;;;;5011182;28;19929;-85
2023/06/23 02:10:37;;;;;;;;;;;16.30;99.90;;;;;;5027376;28;20020;-84
2023/06/23 02:13:03;;;;;;;;;;;16.30;99.90;;;;;;5027020;28;19969;-85
2023/06/23 02:15:29;;;;;;;;;;;16.20;99.90;;;;;;5012442;28;19926;-85
2023/06/23 02:17:55;;;;;;;;;;;16.20;99.90;;;;;;5015130;28;20024;-84
2023/06/23 02:20:23;;;;;;;;;;;16.20;99.90;;;;;;5016569;28;19929;-84
2023/06/23 02:22:50;;;;;;;;;;;16.20;99.90;;;;;;5035611;28;19925;-84
2023/06/23 02:25:16;;;;;;;;;;;16.20;99.90;;;;;;5035214;28;19932;-84
2023/06/23 02:27:42;;;;;;;;;;;16.20;99.90;;;;;;5034672;28;19932;-85
2023/06/23 02:30:08;;;;;;;;;;;16.10;99.90;;;;;;5015722;28;19925;-85
2023/06/23 02:32:34;;;;;;;;;;;16.10;99.90;;;;;;5016357;28;20012;-84
2023/06/23 02:35:00;;;;;;;;;;;16.10;99.90;;;;;;5034683;28;20504;-85
2023/06/23 02:45:11;;;;;;;;;;;16.00;99.90;;;;;;4993565;28;19925;-86
2023/06/23 02:47:38;;;;;;;;;;;15.90;99.90;;;;;;4979074;28;19988;-86
2023/06/23 02:50:05;;;;;;;;;;;15.90;99.90;;;;;;4997022;28;19932;-87
2023/06/23 02:52:34;;;;;;;;;;;15.90;99.90;;;;;;4996476;28;19976;-86
2023/06/23 02:55:02;;;;;;;;;;;15.80;99.90;;;;;;4997339;28;19933;-86
2023/06/23 02:57:29;;;;;;;;;;;15.80;99.90;;;;;;5040207;22;20020;-86
2023/06/23 02:59:58;;;;;;;;;;;15.70;99.90;;;;;;5035850;28;19932;-86
2023/06/23 03:02:24;;;;;;;;;;;15.70;99.90;;;;;;5046166;28;19925;-86
2023/06/23 03:04:50;;;;;;;;;;;15.70;99.90;;;;;;5049570;28;19992;-87
2023/06/23 03:07:17;;;;;;;;;;;15.60;99.90;;;;;;5051193;28;19929;-86
2023/06/23 03:09:44;;;;;;;;;;;15.60;99.90;;;;;;5044704;28;19925;-86
2023/06/23 03:12:10;;;;;;;;;;;15.60;99.90;;;;;;5035648;28;19947;-85
2023/06/23 03:14:36;;;;;;;;;;;15.60;99.90;;;;;;5044504;28;19925;-86
2023/06/23 03:17:28;;;;;;;;;;;15.50;99.90;;;;;;5049350;28;19979;-85
2023/06/23 03:19:56;;;;;;;;;;;15.50;99.90;;;;;;5052743;28;19925;-86
2023/06/23 03:22:48;;;;;;;;;;;15.50;99.90;;;;;;5050844;28;19928;-85
2023/06/23 03:25:16;;;;;;;;;;;15.50;99.90;;;;;;5057156;28;20396;-85
2023/06/23 03:27:42;;;;;;;;;;;15.50;99.90;;;;;;5043784;28;19925;-86
2023/06/23 03:30:08;;;;;;;;;;;15.50;99.90;;;;;;5047586;28;20016;-86
2023/06/23 03:32:38;;;;;;;;;;;15.50;99.90;;;;;;5053791;28;19926;-86
2023/06/23 03:35:06;;;;;;;;;;;15.40;99.90;;;;;;5048653;28;20003;-86
2023/06/23 03:37:33;;;;;;;;;;;15.40;99.90;;;;;;5046982;28;19925;-86
2023/06/23 03:40:01;;;;;;;;;;;15.40;99.90;;;;;;5050962;28;20450;-86
2023/06/23 03:42:27;;;;;;;;;;;15.40;99.90;;;;;;5053597;28;19986;-86
2023/06/23 03:44:54;;;;;;;;;;;15.40;99.90;;;;;;5051059;28;19925;-86
2023/06/23 03:47:21;;;;;;;;;;;15.40;99.90;;;;;;5052730;28;19929;-86
2023/06/23 03:49:52;;;;;;;;;;;15.40;99.90;;;;;;5050989;28;20033;-86
2023/06/23 03:52:18;;;;;;;;;;;15.40;99.90;;;;;;5053641;28;20407;-86
2023/06/23 03:54:45;;;;;;;;;;;15.40;99.90;;;;;;5037120;28;19925;-85
2023/06/23 03:57:13;;;;;;;;;;;15.30;99.90;;;;;;5050456;28;19924;-85
2023/06/23 03:59:39;;;;;;;;;;;15.30;99.90;;;;;;5051445;28;19936;-86
2023/06/23 04:02:06;;;;;;;;;;;15.30;99.90;;;;;;5043422;28;19925;-86
2023/06/23 04:04:32;;;;;;;;;;;15.20;99.90;;;;;;5044834;28;19979;-86
2023/06/23 04:06:59;;;;;;;;;;;15.20;99.90;;;;;;5050360;28;19925;-86
2023/06/23 04:09:25;;;;;;;;;;;15.20;99.90;;;;;;5042734;28;19960;-86
2023/06/23 04:11:52;;;;;;;;;;;15.20;99.90;;;;;;5044679;28;19925;-86
2023/06/23 04:14:18;;;;;;;;;;;15.10;99.90;;;;;;5047157;28;19979;-86
2023/06/23 04:16:49;;;;;;;;;;;15.10;99.90;;;;;;5055118;28;19976;-87
2023/06/23 04:19:15;;;;;;;;;;;15.10;99.90;;;;;;5052474;28;19952;-86
2023/06/23 04:21:42;;;;;;;;;;;15.10;99.90;;;;;;5038390;28;19963;-86
2023/06/23 04:24:10;;;;;;;;;;;15.10;99.90;;;;;;5046591;28;20445;-86
2023/06/23 04:26:37;;;;;;;;;;;15.10;99.90;;;;;;5049437;28;19932;-86
2023/06/23 04:29:04;;;;;;;;;;;15.10;99.90;;;;;;5032806;28;19925;-86
2023/06/23 04:31:32;;;;;;;;;;;15.10;99.90;;;;;;5048316;28;19925;-88
2023/06/23 04:33:57;;;;;;;;;;;15.10;99.90;;;;;;5040927;28;19929;-88
2023/06/23 04:36:24;;;;;;;;;;;15.10;99.90;;;;;;5048612;28;19932;-87
2023/06/23 04:38:54;;;;;;;;;;;15.10;99.90;;;;;;5028520;28;19986;-87
2023/06/23 04:41:21;;;;;;;;;;;15.20;99.90;;;;;;5029713;28;19925;-84
2023/06/23 04:43:51;;;;;;;;;;;15.20;99.90;;;;;;5034179;28;19933;-85
2023/06/23 04:46:24;;;;;;;;;;;15.10;99.90;;;;;;5050134;28;19955;-85
2023/06/23 04:48:57;;;;;;;;;;;15.10;99.90;;;;;;5049664;28;20403;-85
2023/06/23 04:51:27;;;;;;;;;;;15.20;99.90;;;;;;5051259;28;20328;-85
2023/06/23 04:53:56;;;;;;;;;;;15.30;99.90;;;;;;5050148;28;19929;-85
2023/06/23 04:56:23;;;;;;;;;;;15.30;99.90;;;;;;5042080;28;19932;-85
2023/06/23 04:58:53;;;;;;;;;;;15.30;99.90;;;;;;5049387;28;19924;-85
2023/06/23 05:01:19;;;;;;;;;;;15.40;99.90;;;;;;5043587;28;19941;-84
2023/06/23 05:03:46;;;;;;;;;;;15.40;99.90;;;;;;5028494;28;19924;-85
2023/06/23 05:06:12;;;;;;;;;;;15.50;99.90;;;;;;5036820;28;19925;-84
2023/06/23 05:08:38;;;;;;;;;;;15.60;99.90;;;;;;5038414;28;19932;-85
2023/06/23 05:11:05;;;;;;;;;;;15.60;99.90;;;;;;5046407;28;20052;-85
2023/06/23 05:13:33;;;;;;;;;;;15.70;99.90;;;;;;5027985;28;19925;-85
2023/06/23 05:16:00;;;;;;;;;;;15.80;99.90;;;;;;5049149;28;20307;-85
2023/06/23 05:18:27;;;;;;;;;;;15.80;99.90;;;;;;5044548;28;19925;-85
2023/06/23 05:20:53;;;;;;;;;;;15.90;99.90;;;;;;5042141;28;19955;-85
2023/06/23 05:23:19;;;;;;;;;;;15.90;99.90;;;;;;5040385;28;19955;-85
2023/06/23 05:25:45;;;;;;;;;;;16.00;99.90;;;;;;5050648;28;20007;-84
2023/06/23 05:28:11;;;;;;;;;;;16.00;99.90;;;;;;5046761;28;19933;-85
2023/06/23 05:30:37;;;;;;;;;;;16.00;99.90;;;;;;5044001;28;19986;-85
2023/06/23 05:33:07;;;;;;;;;;;16.00;99.90;;;;;;5026428;28;19972;-84
2023/06/23 05:35:33;;;;;;;;;;;16.00;99.90;;;;;;5049276;28;20015;-84
2023/06/23 05:38:00;;;;;;;;;;;16.10;99.90;;;;;;5030862;28;19924;-84
2023/06/23 05:40:26;;;;;;;;;;;16.10;99.90;;;;;;5048050;28;20380;-84
2023/06/23 05:42:52;;;;;;;;;;;16.10;99.90;;;;;;5049703;28;19986;-84
2023/06/23 05:45:18;;;;;;;;;;;16.10;99.90;;;;;;5035351;28;20043;-83
2023/06/23 05:48:10;;;;;;;;;;;16.10;99.90;;;;;;5040579;28;19947;-85
2023/06/23 05:50:37;;;;;;;;;;;16.10;99.90;;;;;;5022101;28;19924;-85
2023/06/23 05:53:10;;;;;;;;;;;16.10;99.90;;;;;;5046496;28;19970;-84
2023/06/23 05:55:41;;;;;;;;;;;16.10;99.90;;;;;;5045442;28;20460;-84
2023/06/23 05:58:09;;;;;;;;;;;16.10;99.90;;;;;;5041436;28;19935;-86
2023/06/23 06:00:42;;;;;;;;;;;16.10;99.90;;;;;;5042988;28;20122;-84
2023/06/23 06:03:09;;;;;;;;;;;16.10;99.90;;;;;;5046921;28;20308;-85
2023/06/23 06:05:38;;;;;;;;;;;16.10;99.90;;;;;;5046220;28;19947;-85
2023/06/23 06:08:04;;;;;;;;;;;16.20;99.90;;;;;;5036772;28;19943;-86
2023/06/23 06:10:31;;;;;;;;;;;16.30;99.90;;;;;;5045696;28;19933;-86
2023/06/23 06:12:58;;;;;;;;;;;16.40;99.90;;;;;;5034946;28;19978;-87
2023/06/23 06:15:24;;;;;;;;;;;16.50;99.90;;;;;;5047676;28;19948;-86
2023/06/23 06:17:51;;;;;;;;;;;16.50;99.90;;;;;;5042865;28;19933;-86
2023/06/23 06:20:17;;;;;;;;;;;16.60;99.90;;;;;;4989816;28;19925;-86
2023/06/23 06:22:44;;;;;;;;;;;16.70;99.90;;;;;;5027077;28;19936;-86
2023/06/23 06:25:11;;;;;;;;;;;16.80;99.90;;;;;;5027784;28;20050;-87
2023/06/23 06:27:37;;;;;;;;;;;16.90;99.90;;;;;;5009516;28;19933;-85
2023/06/23 06:30:04;;;;;;;;;;;17.00;99.90;;;;;;5004474;28;19940;-87
2023/06/23 06:32:32;;;;;;;;;;;17.20;99.90;;;;;;5007301;28;19941;-85
2023/06/23 06:35:04;;;;;;;;;;;17.30;99.90;;;;;;5027596;28;20362;-86
2023/06/23 06:37:33;;;;;;;;;;;17.40;99.90;;;;;;5031047;28;19980;-86
2023/06/23 06:40:00;;;;;;;;;;;17.50;99.90;;;;;;5022788;28;20272;-86
2023/06/23 06:42:25;;;;;;;;;;;17.60;99.90;;;;;;5026359;28;19944;-86
2023/06/23 06:44:51;;;;;;;;;;;17.70;99.90;;;;;;5020063;28;21672;-86
2023/06/23 06:47:17;;;;;;;;;;;17.80;99.90;;;;;;5024226;28;20026;-85
2023/06/23 06:49:42;;;;;;;;;;;17.90;99.90;;;;;;5024575;28;19933;-84
2023/06/23 06:52:08;;;;;;;;;;;18.00;99.90;;;;;;5031294;28;19933;-87
2023/06/23 06:54:34;;;;;;;;;;;18.00;99.90;;;;;;5021319;28;19932;-87
2023/06/23 06:57:00;;;;;;;;;;;18.10;99.90;;;;;;5025764;28;19932;-86
2023/06/23 06:59:25;;;;;;;;;;;18.20;99.90;;;;;;5026926;28;19932;-86
2023/06/23 07:01:52;;;;;;;;;;;18.30;99.90;;;;;;5020374;28;19932;-85
2023/06/23 07:04:19;;;;;;;;;;;18.30;99.90;;;;;;5025881;28;19925;-86
2023/06/23 07:06:50;;;;;;;;;;;18.40;99.90;;;;;;5026770;28;19933;-86
2023/06/23 07:09:16;;;;;;;;;;;18.40;99.90;;;;;;5025449;28;19969;-86
2023/06/23 07:11:41;;;;;;;;;;;18.40;99.90;;;;;;5033604;28;20020;-85
2023/06/23 07:14:07;;;;;;;;;;;18.50;99.90;;;;;;5022831;28;19929;-86
2023/06/23 07:16:33;;;;;;;;;;;18.50;99.90;;;;;;5022622;28;19964;-85
2023/06/23 07:18:59;;;;;;;;;;;18.50;99.90;;;;;;5034710;28;20012;-86
2023/06/23 07:21:25;;;;;;;;;;;18.60;99.90;;;;;;5027117;28;20733;-85
2023/06/23 07:23:50;;;;;;;;;;;18.70;99.90;;;;;;5027100;28;20003;-84
2023/06/23 07:26:16;;;;;;;;;;;18.80;99.90;;;;;;5009647;28;20411;-86
2023/06/23 07:28:41;;;;;;;;;;;18.80;99.90;;;;;;5025176;28;19940;-86
2023/06/23 07:31:07;;;;;;;;;;;18.90;99.90;;;;;;5027578;28;19933;-85
2023/06/23 07:33:32;;;;;;;;;;;19.00;99.90;;;;;;5028715;28;19933;-86
2023/06/23 07:35:58;;;;;;;;;;;19.00;99.90;;;;;;5009427;28;20079;-85
2023/06/23 07:38:24;;;;;;;;;;;19.10;99.90;;;;;;5024266;28;20334;-84
2023/06/23 07:40:49;;;;;;;;;;;19.10;99.90;;;;;;5025684;28;19986;-84
2023/06/23 07:43:15;;;;;;;;;;;19.10;99.90;;;;;;5009452;28;20745;-83
2023/06/23 07:45:41;;;;;;;;;;;19.20;99.90;;;;;;5007723;28;19925;-85
2023/06/23 07:48:07;;;;;;;;;;;19.30;99.90;;;;;;5008799;28;20296;-85
2023/06/23 07:50:32;;;;;;;;;;;19.30;99.90;;;;;;5025839;28;19933;-85
2023/06/23 07:52:58;;;;;;;;;;;19.40;99.90;;;;;;5031437;28;21312;-85
2023/06/23 07:55:24;;;;;;;;;;;19.40;99.90;;;;;;5023188;28;19933;-86
2023/06/23 07:57:49;;;;;;;;;;;19.40;99.90;;;;;;5011687;28;19933;-85
2023/06/23 08:00:16;;;;;;;;;;;19.50;99.90;;;;;;5023474;28;19933;-84
2023/06/23 08:02:44;;;;;;;;;;;19.50;99.90;;;;;;5034457;28;19933;-85
2023/06/23 08:05:10;;;;;;;;;;;19.60;99.90;;;;;;5030202;28;20022;-85
2023/06/23 08:07:36;;;;;;;;;;;19.60;99.90;;;;;;5010859;28;20677;-85
2023/06/23 08:10:01;;;;;;;;;;;19.70;99.90;;;;;;5023389;28;19940;-84
2023/06/23 08:12:27;;;;;;;;;;;19.80;99.90;;;;;;5022967;28;19995;-85
2023/06/23 08:14:52;;;;;;;;;;;19.80;99.90;;;;;;5025342;28;19933;-84
2023/06/23 08:17:18;;;;;;;;;;;19.90;99.90;;;;;;5028917;28;19949;-85
2023/06/23 08:19:44;;;;;;;;;;;20.00;99.90;;;;;;5023660;28;19973;-85
2023/06/23 08:22:09;;;;;;;;;;;20.00;99.90;;;;;;5029134;28;19944;-85
2023/06/23 08:24:35;;;;;;;;;;;20.10;99.90;;;;;;5025225;28;19939;-85
2023/06/23 08:27:01;;;;;;;;;;;20.20;99.90;;;;;;5022188;28;20327;-86
2023/06/23 08:29:26;;;;;;;;;;;20.20;99.90;;;;;;5024467;28;19925;-85
2023/06/23 08:31:52;;;;;;;;;;;20.30;99.90;;;;;;5026741;28;19925;-85
2023/06/23 08:34:18;;;;;;;;;;;20.40;99.90;;;;;;5007198;28;19924;-83
2023/06/23 08:36:44;;;;;;;;;;;20.40;99.90;;;;;;5027338;28;19941;-83
2023/06/23 08:39:10;;;;;;;;;;;20.50;99.90;;;;;;5024265;28;19939;-84
2023/06/23 08:41:38;;;;;;;;;;;20.50;99.90;;;;;;5011353;28;19971;-83
2023/06/23 08:44:05;;;;;;;;;;;20.60;99.90;;;;;;5017863;28;19932;-85
2023/06/23 08:46:33;;;;;;;;;;;20.70;99.90;;;;;;5024635;28;19980;-85
2023/06/23 08:49:03;;;;;;;;;;;20.80;99.90;;;;;;5026831;28;20032;-83
2023/06/23 08:51:29;;;;;;;;;;;20.90;99.90;;;;;;5028750;28;19929;-85
2023/06/23 08:53:55;;;;;;;;;;;20.90;99.90;;;;;;4998597;28;19933;-84
2023/06/23 08:56:21;;;;;;;;;;;21.00;99.90;;;;;;5027635;28;19933;-86
2023/06/23 08:58:47;;;;;;;;;;;21.10;99.90;;;;;;5024170;28;19941;-85
2023/06/23 09:01:12;;;;;;;;;;;21.10;99.90;;;;;;5023836;28;20078;-86
2023/06/23 09:03:38;;;;;;;;;;;21.10;99.90;;;;;;5025251;28;20430;-85
2023/06/23 09:06:04;;;;;;;;;;;21.10;99.90;;;;;;5025972;28;20173;-85
2023/06/23 09:08:30;;;;;;;;;;;21.20;99.90;;;;;;5024411;28;20395;-84
2023/06/23 09:10:55;;;;;;;;;;;21.30;99.90;;;;;;5028529;28;20062;-85
2023/06/23 09:13:23;;;;;;;;;;;21.30;99.90;;;;;;5031527;28;20364;-86
2023/06/23 09:15:49;;;;;;;;;;;21.40;99.90;;;;;;5006556;28;19933;-85
2023/06/23 09:18:15;;;;;;;;;;;21.40;99.90;;;;;;5007484;28;19933;-86
2023/06/23 09:20:44;;;;;;;;;;;21.50;99.90;;;;;;5029213;28;19932;-85
2023/06/23 09:23:12;;;;;;;;;;;21.60;99.90;;;;;;5024278;28;19933;-84
2023/06/23 09:25:38;;;;;;;;;;;21.70;99.90;;;;;;5026115;28;19940;-85
2023/06/23 09:28:04;;;;;;;;;;;21.80;99.90;;;;;;5026128;28;20481;-84
2023/06/23 09:30:34;;;;;;;;;;;21.90;99.90;;;;;;5008850;28;19933;-84
2023/06/23 09:33:00;;;;;;;;;;;21.90;99.90;;;;;;5025996;28;20638;-85
2023/06/23 09:35:26;;;;;;;;;;;21.90;99.90;;;;;;5030055;28;20019;-86
2023/06/23 09:37:52;;;;;;;;;;;22.00;99.90;;;;;;5024877;28;19933;-84
2023/06/23 09:40:24;;;;;;;;;;;22.20;99.90;;;;;;5029645;28;19933;-85
2023/06/23 09:42:55;;;;;;;;;;;22.20;99.90;;;;;;5030626;28;20033;-86
2023/06/23 09:45:22;;;;;;;;;;;22.20;99.90;;;;;;5026632;28;19968;-84
2023/06/23 09:47:49;;;;;;;;;;;22.20;99.90;;;;;;5029117;28;19933;-85
2023/06/23 09:50:20;;;;;;;;;;;22.30;99.90;;;;;;5028716;28;19987;-85
2023/06/23 09:52:46;;;;;;;;;;;22.30;99.90;;;;;;5029637;28;19925;-84
2023/06/23 09:55:11;;;;;;;;;;;22.30;99.90;;;;;;5028699;28;19925;-84
2023/06/23 09:57:37;;;;;;;;;;;22.40;99.90;;;;;;5031209;28;20904;-84
2023/06/23 10:00:05;;;;;;;;;;;22.40;99.90;;;;;;5025647;28;19933;-84
2023/06/23 10:02:31;;;;;;;;;;;22.50;99.90;;;;;;5025267;28;19995;-85
2023/06/23 10:04:58;;;;;;;;;;;22.60;99.90;;;;;;5012399;28;20415;-84
2023/06/23 10:07:24;;;;;;;;;;;22.70;99.90;;;;;;5027818;28;19940;-83
2023/06/23 10:09:57;;;;;;;;;;;22.80;99.90;;;;;;5032091;28;19933;-83
2023/06/23 10:12:26;;;;;;;;;;;23.00;99.90;;;;;;5028137;28;19925;-84
2023/06/23 10:14:52;;;;;;;;;;;23.10;99.90;;;;;;5037548;28;19952;-82
2023/06/23 10:17:18;;;;;;;;;;;23.20;99.90;;;;;;5025302;28;19940;-83
2023/06/23 10:19:47;;;;;;;;;;;23.40;99.90;;;;;;5023254;28;19925;-82
2023/06/23 10:22:14;;;;;;;;;;;23.50;99.90;;;;;;5020322;28;19926;-82
2023/06/23 10:24:40;;;;;;;;;;;23.50;99.90;;;;;;5000910;28;20388;-82
2023/06/23 10:27:08;;;;;;;;;;;23.40;99.90;;;;;;5042601;28;20575;-82
2023/06/23 10:29:38;;;;;;;;;;;23.50;99.90;;;;;;5044108;28;20396;-83
2023/06/23 10:32:05;;;;;;;;;;;23.60;99.90;;;;;;5025111;28;19960;-83
2023/06/23 10:34:33;;;;;;;;;;;23.70;99.90;;;;;;5039239;28;19928;-84
2023/06/23 10:37:01;;;;;;;;;;;23.70;99.90;;;;;;5046389;28;19929;-84
2023/06/23 10:39:29;;;;;;;;;;;23.80;99.90;;;;;;5048428;28;19956;-83
2023/06/23 10:41:58;;;;;;;;;;;23.80;99.90;;;;;;5052779;28;20456;-85
2023/06/23 10:44:23;;;;;;;;;;;23.80;99.90;;;;;;5037498;28;19936;-85
2023/06/23 10:46:49;;;;;;;;;;;23.80;99.90;;;;;;5044600;28;19929;-85
2023/06/23 10:49:15;;;;;;;;;;;23.50;99.90;;;;;;5049286;28;20008;-86
2023/06/23 10:51:41;;;;;;;;;;;23.60;99.90;;;;;;5046545;28;20324;-85
2023/06/23 10:54:07;;;;;;;;;;;23.70;99.90;;;;;;5054752;28;20352;-87
2023/06/23 10:56:34;;;;;;;;;;;23.80;99.90;;;;;;5048704;28;20023;-85
2023/06/23 10:59:16;;;;;;;;;;;23.90;99.90;;;;;;5054846;28;19987;-85
2023/06/23 11:02:00;;;;;;;;;;;24.00;99.90;;;;;;5048764;28;19974;-86
2023/06/23 11:04:26;;;;;;;;;;;24.20;99.90;;;;;;5053976;28;19956;-85
2023/06/23 11:07:02;;;;;;;;;;;24.30;99.90;;;;;;5037423;28;19924;-85
2023/06/23 11:09:54;;;;;;;;;;;24.20;99.90;;;;;;5054146;28;19929;-85
2023/06/23 11:12:36;;;;;;;;;;;24.30;99.90;;;;;;5034737;28;19931;-86
2023/06/23 11:15:20;;;;;;;;;;;24.40;99.90;;;;;;5043780;28;20245;-86
2023/06/23 11:17:49;;;;;;;;;;;24.50;99.90;;;;;;5051893;28;19928;-85
2023/06/23 11:20:24;;;;;;;;;;;24.60;99.90;;;;;;5023516;28;19925;-84
2023/06/23 11:22:54;;;;;;;;;;;24.70;99.90;;;;;;5049885;28;19925;-85
2023/06/23 11:25:25;;;;;;;;;;;24.70;99.90;;;;;;5053199;28;19990;-86
2023/06/23 11:28:09;;;;;;;;;;;24.80;99.90;;;;;;5028555;28;20300;-85
2023/06/23 11:30:50;;;;;;;;;;;24.90;99.90;;;;;;5042780;28;19931;-85
2023/06/23 11:33:29;;;;;;;;;;;24.80;99.90;;;;;;5034889;28;20439;-84
2023/06/23 11:35:55;;;;;;;;;;;24.80;99.90;;;;;;5032965;28;20298;-84
2023/06/23 11:38:21;;;;;;;;;;;24.80;99.90;;;;;;5030989;28;19995;-85
2023/06/23 11:40:47;;;;;;;;;;;24.80;99.90;;;;;;5052393;28;19968;-85
2023/06/23 11:43:15;;;;;;;;;;;24.90;99.90;;;;;;5045842;28;19929;-85
2023/06/23 11:45:51;;;;;;;;;;;24.90;99.90;;;;;;5052823;28;19933;-84
2023/06/23 11:48:17;;;;;;;;;;;24.90;99.90;;;;;;5032605;28;20376;-86
2023/06/23 11:50:43;;;;;;;;;;;24.80;99.90;;;;;;5052067;28;19978;-85
2023/06/23 11:53:09;;;;;;;;;;;24.80;99.90;;;;;;5042353;28;20395;-84
2023/06/23 11:55:35;;;;;;;;;;;24.70;99.90;;;;;;5025592;28;20331;-85
2023/06/23 11:58:01;;;;;;;;;;;24.70;99.90;;;;;;5047813;28;19925;-84
2023/06/23 12:00:27;;;;;;;;;;;24.70;99.90;;;;;;5043146;28;19936;-85
2023/06/23 12:02:54;;;;;;;;;;;24.70;99.90;;;;;;5051015;28;19924;-84
2023/06/23 12:05:20;;;;;;;;;;;24.70;99.90;;;;;;5052250;28;19925;-85
2023/06/23 12:07:47;;;;;;;;;;;24.70;99.90;;;;;;5047781;28;19932;-86
2023/06/23 12:10:12;;;;;;;;;;;24.60;99.90;;;;;;5045495;28;20063;-87
2023/06/23 12:12:38;;;;;;;;;;;24.70;99.90;;;;;;5047271;28;19960;-85
2023/06/23 12:15:04;;;;;;;;;;;24.80;99.90;;;;;;5051212;28;19925;-86
2023/06/23 12:17:29;;;;;;;;;;;24.90;99.90;;;;;;5041596;28;19968;-86
2023/06/23 12:19:55;;;;;;;;;;;25.00;99.90;;;;;;5049483;28;20007;-85
2023/06/23 12:22:21;;;;;;;;;;;25.10;99.60;;;;;;5029992;28;20325;-87
2023/06/23 12:24:46;;;;;;;;;;;25.10;99.20;;;;;;5032272;28;19925;-87
2023/06/23 12:27:12;;;;;;;;;;;25.20;98.30;;;;;;5045818;28;19925;-86
2023/06/23 12:29:38;;;;;;;;;;;25.20;96.90;;;;;;5044512;28;19933;-87
2023/06/23 12:32:04;;;;;;;;;;;25.30;99.10;;;;;;5044695;28;20339;-86
2023/06/23 12:34:33;;;;;;;;;;;25.30;92.70;;;;;;5047512;28;19979;-86
2023/06/23 12:37:02;;;;;;;;;;;25.20;95.40;;;;;;5040363;28;19952;-87
2023/06/23 12:39:29;;;;;;;;;;;25.20;95.30;;;;;;5046017;28;19928;-87
2023/06/23 12:41:54;;;;;;;;;;;25.20;95.10;;;;;;5039971;28;19948;-86
2023/06/23 12:44:21;;;;;;;;;;;25.20;95.50;;;;;;5051623;28;19932;-88
2023/06/23 12:46:48;;;;;;;;;;;25.20;95.10;;;;;;5048189;28;19935;-86
2023/06/23 12:49:13;;;;;;;;;;;25.30;95.10;;;;;;5045147;28;20340;-87
2023/06/23 12:51:39;;;;;;;;;;;25.30;94.90;;;;;;5050807;28;19929;-87
2023/06/23 12:54:05;;;;;;;;;;;25.30;93.00;;;;;;5051359;28;20253;-86
2023/06/23 12:56:30;;;;;;;;;;;25.40;93.10;;;;;;5044207;28;20063;-87
2023/06/23 12:58:57;;;;;;;;;;;25.40;93.80;;;;;;5048019;28;19932;-87
2023/06/23 13:01:24;;;;;;;;;;;25.40;93.60;;;;;;5042798;28;19925;-87
2023/06/23 13:03:50;;;;;;;;;;;25.40;92.60;;;;;;5046386;28;19925;-87
2023/06/23 13:06:15;;;;;;;;;;;25.30;92.20;;;;;;5045386;28;20395;-88
2023/06/23 13:08:41;;;;;;;;;;;25.40;92.30;;;;;;5047442;28;19925;-87
2023/06/23 13:11:07;;;;;;;;;;;25.50;91.50;;;;;;5050607;28;19925;-86
2023/06/23 13:13:33;;;;;;;;;;;25.50;92.50;;;;;;5045313;28;19936;-86
2023/06/23 13:16:00;;;;;;;;;;;25.50;91.90;;;;;;5051210;28;20274;-88
2023/06/23 13:18:25;;;;;;;;;;;25.40;91.90;;;;;;5044207;28;20042;-84
2023/06/23 13:20:51;;;;;;;;;;;25.30;91.50;;;;;;5043321;28;19947;-85
2023/06/23 13:23:19;;;;;;;;;;;25.20;91.50;;;;;;5050308;28;20003;-89
2023/06/23 13:25:45;;;;;;;;;;;25.20;92.30;;;;;;5047811;28;20108;-86
2023/06/23 13:28:11;;;;;;;;;;;25.00;92.10;;;;;;5031157;28;19925;-86
2023/06/23 13:30:36;;;;;;;;;;;24.90;91.90;;;;;;5052027;28;19925;-87
2023/06/23 13:33:02;;;;;;;;;;;24.80;92.30;;;;;;5041489;28;20455;-86
2023/06/23 13:35:27;;;;;;;;;;;24.80;93.10;;;;;;5043739;28;20031;-86
2023/06/23 13:37:56;;;;;;;;;;;24.90;93.70;;;;;;5046496;28;19932;-87
2023/06/23 13:40:22;;;;;;;;;;;25.00;93.70;;;;;;5051083;28;19974;-86
2023/06/23 13:42:47;;;;;;;;;;;25.20;92.60;;;;;;5048483;28;19925;-86
2023/06/23 13:45:13;;;;;;;;;;;25.20;91.50;;;;;;5031287;28;20074;-85
2023/06/23 13:47:40;;;;;;;;;;;25.10;91.80;;;;;;5013377;28;19933;-86
2023/06/23 13:50:12;;;;;;;;;;;25.20;93.00;;;;;;5008159;28;19987;-87
2023/06/23 13:52:38;;;;;;;;;;;25.20;92.20;;;;;;5031390;28;19933;-85
2023/06/23 13:55:06;;;;;;;;;;;25.20;90.40;;;;;;5031239;28;20948;-87
2023/06/23 13:57:32;;;;;;;;;;;25.20;90.80;;;;;;5032750;28;19929;-89
2023/06/23 13:59:57;;;;;;;;;;;25.20;90.70;;;;;;5029349;28;19937;-87
2023/06/23 14:02:23;;;;;;;;;;;25.30;90.90;;;;;;5028978;28;19925;-86
2023/06/23 14:04:49;;;;;;;;;;;25.40;89.50;;;;;;5011139;28;21202;-87
2023/06/23 14:07:14;;;;;;;;;;;25.30;91.00;;;;;;5012407;28;19933;-86
2023/06/23 14:09:40;;;;;;;;;;;25.30;90.40;;;;;;5009754;28;19933;-85
2023/06/23 14:12:06;;;;;;;;;;;25.20;90.50;;;;;;5007847;28;19940;-85
2023/06/23 14:14:32;;;;;;;;;;;25.10;91.80;;;;;;5031483;28;19932;-89
2023/06/23 14:16:58;;;;;;;;;;;25.20;91.30;;;;;;5028124;28;20265;-86
2023/06/23 14:19:23;;;;;;;;;;;25.20;89.50;;;;;;5008388;28;20447;-85
2023/06/23 14:21:49;;;;;;;;;;;25.20;88.80;;;;;;5028165;28;19983;-87
2023/06/23 14:24:15;;;;;;;;;;;25.10;89.50;;;;;;5028049;28;19932;-86
2023/06/23 14:26:40;;;;;;;;;;;24.90;90.20;;;;;;5032968;28;19925;-86